sensor_id;sensor_type;location;lat;lon;timestamp;P1;durP1;ratioP1;P2;durP2;ratioP2
17059;SDS011;8646;49.716;9.266;2023-05-10T00:01:48;5.90;;;2.70;;
17059;SDS011;8646;49.716;9.266;2023-05-10T00:04:51;4.70;;;2.50;;
17059;SDS011;8646;49.716;9.266;2023-05-10T00:07:54;3.57;;;2.43;;
17059;SDS011;8646;49.716;9.266;2023-05-10T00:10:57;5.23;;;2.37;;
17059;SDS011;8646;49.716;9.266;2023-05-10T00:14:01;3.77;;;2.80;;
17059;SDS011;8646;49.716;9.266;2023-05-10T00:17:04;7.93;;;2.87;;
17059;SDS011;8646;49.716;9.266;2023-05-10T00:20:07;3.73;;;1.87;;
17059;SDS011;8646;49.716;9.266;2023-05-10T00:23:10;3.50;;;1.83;;
17059;SDS011;8646;49.716;9.266;2023-05-10T00:26:13;5.80;;;1.70;;
17059;SDS011;8646;49.716;9.266;2023-05-10T00:29:21;4.63;;;2.10;;
17059;SDS011;8646;49.716;9.266;2023-05-10T00:32:24;3.73;;;2.23;;
17059;SDS011;8646;49.716;9.266;2023-05-10T00:35:27;4.90;;;2.30;;
17059;SDS011;8646;49.716;9.266;2023-05-10T00:38:29;5.00;;;2.10;;
17059;SDS011;8646;49.716;9.266;2023-05-10T00:41:32;6.20;;;1.90;;
17059;SDS011;8646;49.716;9.266;2023-05-10T00:44:37;2.07;;;1.40;;
17059;SDS011;8646;49.716;9.266;2023-05-10T00:47:39;3.00;;;1.00;;
17059;SDS011;8646;49.716;9.266;2023-05-10T00:50:43;2.13;;;0.80;;
17059;SDS011;8646;49.716;9.266;2023-05-10T00:53:46;1.97;;;0.93;;
17059;SDS011;8646;49.716;9.266;2023-05-10T00:56:50;1.73;;;0.80;;
17059;SDS011;8646;49.716;9.266;2023-05-10T00:59:54;1.33;;;1.00;;
17059;SDS011;8646;49.716;9.266;2023-05-10T01:03:01;0.87;;;0.70;;
17059;SDS011;8646;49.716;9.266;2023-05-10T01:06:05;1.60;;;0.90;;
17059;SDS011;8646;49.716;9.266;2023-05-10T01:09:08;1.90;;;0.70;;
17059;SDS011;8646;49.716;9.266;2023-05-10T01:12:11;2.27;;;0.70;;
17059;SDS011;8646;49.716;9.266;2023-05-10T01:15:18;1.03;;;0.70;;
17059;SDS011;8646;49.716;9.266;2023-05-10T01:18:22;1.50;;;1.00;;
17059;SDS011;8646;49.716;9.266;2023-05-10T01:21:27;1.53;;;0.87;;
17059;SDS011;8646;49.716;9.266;2023-05-10T01:24:54;1.90;;;1.10;;
17059;SDS011;8646;49.716;9.266;2023-05-10T01:28:23;4.33;;;0.90;;
17059;SDS011;8646;49.716;9.266;2023-05-10T01:32:03;0.63;;;0.60;;
17059;SDS011;8646;49.716;9.266;2023-05-10T01:35:26;2.90;;;0.80;;
17059;SDS011;8646;49.716;9.266;2023-05-10T01:38:37;1.47;;;0.97;;
17059;SDS011;8646;49.716;9.266;2023-05-10T01:41:45;2.40;;;0.80;;
17059;SDS011;8646;49.716;9.266;2023-05-10T01:44:54;1.90;;;0.80;;
17059;SDS011;8646;49.716;9.266;2023-05-10T01:48:05;7.13;;;1.30;;
17059;SDS011;8646;49.716;9.266;2023-05-10T01:51:09;2.03;;;0.90;;
17059;SDS011;8646;49.716;9.266;2023-05-10T01:54:13;2.43;;;0.90;;
17059;SDS011;8646;49.716;9.266;2023-05-10T01:57:20;1.77;;;0.70;;
17059;SDS011;8646;49.716;9.266;2023-05-10T02:00:28;1.27;;;0.90;;
17059;SDS011;8646;49.716;9.266;2023-05-10T02:03:33;1.50;;;1.00;;
17059;SDS011;8646;49.716;9.266;2023-05-10T02:06:43;4.17;;;1.10;;
17059;SDS011;8646;49.716;9.266;2023-05-10T02:09:49;1.60;;;0.70;;
17059;SDS011;8646;49.716;9.266;2023-05-10T02:12:52;4.47;;;0.73;;
17059;SDS011;8646;49.716;9.266;2023-05-10T02:15:57;5.53;;;0.80;;
17059;SDS011;8646;49.716;9.266;2023-05-10T02:19:05;2.30;;;0.80;;
17059;SDS011;8646;49.716;9.266;2023-05-10T02:22:10;5.97;;;0.93;;
17059;SDS011;8646;49.716;9.266;2023-05-10T02:25:14;2.70;;;0.90;;
17059;SDS011;8646;49.716;9.266;2023-05-10T02:28:18;2.10;;;1.20;;
17059;SDS011;8646;49.716;9.266;2023-05-10T02:31:23;3.07;;;1.30;;
17059;SDS011;8646;49.716;9.266;2023-05-10T02:34:27;3.30;;;1.20;;
17059;SDS011;8646;49.716;9.266;2023-05-10T02:37:32;2.17;;;1.10;;
17059;SDS011;8646;49.716;9.266;2023-05-10T02:40:36;2.63;;;1.30;;
17059;SDS011;8646;49.716;9.266;2023-05-10T02:43:40;3.07;;;1.17;;
17059;SDS011;8646;49.716;9.266;2023-05-10T02:46:44;1.83;;;1.20;;
17059;SDS011;8646;49.716;9.266;2023-05-10T02:49:48;5.23;;;1.30;;
17059;SDS011;8646;49.716;9.266;2023-05-10T02:52:51;1.70;;;0.97;;
17059;SDS011;8646;49.716;9.266;2023-05-10T02:55:58;1.63;;;0.90;;
17059;SDS011;8646;49.716;9.266;2023-05-10T02:59:05;1.23;;;0.90;;
17059;SDS011;8646;49.716;9.266;2023-05-10T03:02:07;6.77;;;0.90;;
17059;SDS011;8646;49.716;9.266;2023-05-10T03:05:12;5.13;;;1.33;;
17059;SDS011;8646;49.716;9.266;2023-05-10T03:08:15;2.53;;;1.00;;
17059;SDS011;8646;49.716;9.266;2023-05-10T03:11:27;1.23;;;0.93;;
17059;SDS011;8646;49.716;9.266;2023-05-10T03:14:42;5.03;;;1.23;;
17059;SDS011;8646;49.716;9.266;2023-05-10T03:18:06;1.60;;;1.00;;
17059;SDS011;8646;49.716;9.266;2023-05-10T03:21:12;1.93;;;0.90;;
17059;SDS011;8646;49.716;9.266;2023-05-10T03:24:20;7.57;;;1.10;;
17059;SDS011;8646;49.716;9.266;2023-05-10T03:27:26;2.07;;;1.30;;
17059;SDS011;8646;49.716;9.266;2023-05-10T03:30:30;1.63;;;1.17;;
17059;SDS011;8646;49.716;9.266;2023-05-10T03:33:33;2.30;;;1.13;;
17059;SDS011;8646;49.716;9.266;2023-05-10T03:36:38;1.50;;;1.03;;
17059;SDS011;8646;49.716;9.266;2023-05-10T03:39:41;3.17;;;1.00;;
17059;SDS011;8646;49.716;9.266;2023-05-10T03:42:44;2.60;;;1.10;;
17059;SDS011;8646;49.716;9.266;2023-05-10T03:45:46;1.77;;;1.20;;
17059;SDS011;8646;49.716;9.266;2023-05-10T03:48:49;3.10;;;1.30;;
17059;SDS011;8646;49.716;9.266;2023-05-10T03:51:55;4.40;;;1.30;;
17059;SDS011;8646;49.716;9.266;2023-05-10T03:54:58;3.37;;;1.60;;
17059;SDS011;8646;49.716;9.266;2023-05-10T03:58:01;3.57;;;1.70;;
17059;SDS011;8646;49.716;9.266;2023-05-10T04:01:04;3.07;;;1.40;;
17059;SDS011;8646;49.716;9.266;2023-05-10T04:04:07;1.80;;;1.40;;
17059;SDS011;8646;49.716;9.266;2023-05-10T04:07:11;1.90;;;1.37;;
17059;SDS011;8646;49.716;9.266;2023-05-10T04:10:14;3.57;;;1.50;;
17059;SDS011;8646;49.716;9.266;2023-05-10T04:13:17;4.00;;;1.20;;
17059;SDS011;8646;49.716;9.266;2023-05-10T04:16:21;5.70;;;1.30;;
17059;SDS011;8646;49.716;9.266;2023-05-10T04:19:24;2.43;;;1.30;;
17059;SDS011;8646;49.716;9.266;2023-05-10T04:22:28;2.87;;;1.47;;
17059;SDS011;8646;49.716;9.266;2023-05-10T04:25:33;3.10;;;1.60;;
17059;SDS011;8646;49.716;9.266;2023-05-10T04:28:36;2.30;;;1.40;;
17059;SDS011;8646;49.716;9.266;2023-05-10T04:31:39;5.13;;;1.50;;
17059;SDS011;8646;49.716;9.266;2023-05-10T04:34:42;2.33;;;1.40;;
17059;SDS011;8646;49.716;9.266;2023-05-10T04:37:46;3.07;;;1.20;;
17059;SDS011;8646;49.716;9.266;2023-05-10T04:40:48;4.90;;;1.80;;
17059;SDS011;8646;49.716;9.266;2023-05-10T04:43:51;2.97;;;1.60;;
17059;SDS011;8646;49.716;9.266;2023-05-10T04:46:54;4.23;;;1.40;;
17059;SDS011;8646;49.716;9.266;2023-05-10T04:49:56;6.70;;;1.40;;
17059;SDS011;8646;49.716;9.266;2023-05-10T04:53:01;3.20;;;1.40;;
17059;SDS011;8646;49.716;9.266;2023-05-10T04:56:03;5.43;;;1.53;;
17059;SDS011;8646;49.716;9.266;2023-05-10T04:59:06;3.60;;;1.40;;
17059;SDS011;8646;49.716;9.266;2023-05-10T05:02:09;3.57;;;2.50;;
17059;SDS011;8646;49.716;9.266;2023-05-10T05:05:12;7.97;;;2.20;;
17059;SDS011;8646;49.716;9.266;2023-05-10T05:08:16;6.07;;;2.07;;
17059;SDS011;8646;49.716;9.266;2023-05-10T05:11:19;4.37;;;1.60;;
17059;SDS011;8646;49.716;9.266;2023-05-10T05:14:22;3.43;;;1.80;;
17059;SDS011;8646;49.716;9.266;2023-05-10T05:17:26;4.03;;;2.10;;
17059;SDS011;8646;49.716;9.266;2023-05-10T05:20:31;6.10;;;1.70;;
17059;SDS011;8646;49.716;9.266;2023-05-10T05:23:35;3.17;;;1.60;;
17059;SDS011;8646;49.716;9.266;2023-05-10T05:26:38;1.70;;;1.33;;
17059;SDS011;8646;49.716;9.266;2023-05-10T05:29:41;1.97;;;1.20;;
17059;SDS011;8646;49.716;9.266;2023-05-10T05:32:43;2.73;;;1.40;;
17059;SDS011;8646;49.716;9.266;2023-05-10T05:35:48;3.37;;;1.70;;
17059;SDS011;8646;49.716;9.266;2023-05-10T05:38:53;5.07;;;1.50;;
17059;SDS011;8646;49.716;9.266;2023-05-10T05:41:56;3.97;;;1.50;;
17059;SDS011;8646;49.716;9.266;2023-05-10T05:45:06;2.37;;;1.40;;
17059;SDS011;8646;49.716;9.266;2023-05-10T05:48:10;2.27;;;1.50;;
17059;SDS011;8646;49.716;9.266;2023-05-10T05:51:15;3.50;;;1.43;;
17059;SDS011;8646;49.716;9.266;2023-05-10T05:54:19;2.57;;;1.70;;
17059;SDS011;8646;49.716;9.266;2023-05-10T05:57:22;6.37;;;1.60;;
17059;SDS011;8646;49.716;9.266;2023-05-10T06:00:25;3.57;;;1.80;;
17059;SDS011;8646;49.716;9.266;2023-05-10T06:03:31;3.60;;;1.60;;
17059;SDS011;8646;49.716;9.266;2023-05-10T06:06:36;5.60;;;1.80;;
17059;SDS011;8646;49.716;9.266;2023-05-10T06:09:41;5.63;;;1.50;;
17059;SDS011;8646;49.716;9.266;2023-05-10T06:12:43;6.20;;;1.80;;
17059;SDS011;8646;49.716;9.266;2023-05-10T06:15:53;2.63;;;1.57;;
17059;SDS011;8646;49.716;9.266;2023-05-10T06:18:58;3.03;;;1.50;;
17059;SDS011;8646;49.716;9.266;2023-05-10T06:22:03;5.03;;;1.80;;
17059;SDS011;8646;49.716;9.266;2023-05-10T06:25:10;3.23;;;1.73;;
17059;SDS011;8646;49.716;9.266;2023-05-10T06:28:13;6.73;;;1.83;;
17059;SDS011;8646;49.716;9.266;2023-05-10T06:31:16;7.47;;;1.87;;
17059;SDS011;8646;49.716;9.266;2023-05-10T06:34:22;4.30;;;1.53;;
17059;SDS011;8646;49.716;9.266;2023-05-10T06:37:24;4.30;;;1.70;;
17059;SDS011;8646;49.716;9.266;2023-05-10T06:40:28;5.13;;;1.60;;
17059;SDS011;8646;49.716;9.266;2023-05-10T06:43:31;3.10;;;1.50;;
17059;SDS011;8646;49.716;9.266;2023-05-10T06:46:34;7.90;;;1.20;;
17059;SDS011;8646;49.716;9.266;2023-05-10T06:49:37;5.33;;;1.57;;
17059;SDS011;8646;49.716;9.266;2023-05-10T06:52:42;1.83;;;1.33;;
17059;SDS011;8646;49.716;9.266;2023-05-10T06:55:46;3.70;;;1.53;;
17059;SDS011;8646;49.716;9.266;2023-05-10T06:58:51;4.10;;;1.50;;
17059;SDS011;8646;49.716;9.266;2023-05-10T07:01:53;5.00;;;1.60;;
17059;SDS011;8646;49.716;9.266;2023-05-10T07:04:57;5.47;;;1.50;;
17059;SDS011;8646;49.716;9.266;2023-05-10T07:08:03;3.80;;;1.47;;
17059;SDS011;8646;49.716;9.266;2023-05-10T07:11:07;2.67;;;1.30;;
17059;SDS011;8646;49.716;9.266;2023-05-10T07:14:10;6.17;;;1.50;;
17059;SDS011;8646;49.716;9.266;2023-05-10T07:17:13;5.33;;;1.30;;
17059;SDS011;8646;49.716;9.266;2023-05-10T07:20:15;3.00;;;1.20;;
17059;SDS011;8646;49.716;9.266;2023-05-10T07:23:19;5.77;;;1.47;;
17059;SDS011;8646;49.716;9.266;2023-05-10T07:26:23;4.80;;;1.53;;
17059;SDS011;8646;49.716;9.266;2023-05-10T07:29:26;3.40;;;1.30;;
17059;SDS011;8646;49.716;9.266;2023-05-10T07:32:29;4.87;;;1.40;;
17059;SDS011;8646;49.716;9.266;2023-05-10T07:35:33;2.77;;;1.50;;
17059;SDS011;8646;49.716;9.266;2023-05-10T07:38:40;6.80;;;1.97;;
17059;SDS011;8646;49.716;9.266;2023-05-10T07:41:48;3.63;;;1.60;;
17059;SDS011;8646;49.716;9.266;2023-05-10T07:44:51;7.73;;;1.80;;
17059;SDS011;8646;49.716;9.266;2023-05-10T07:47:54;6.30;;;2.00;;
17059;SDS011;8646;49.716;9.266;2023-05-10T07:51:00;4.30;;;1.80;;
17059;SDS011;8646;49.716;9.266;2023-05-10T07:54:04;5.57;;;1.70;;
17059;SDS011;8646;49.716;9.266;2023-05-10T07:57:08;4.37;;;1.40;;
17059;SDS011;8646;49.716;9.266;2023-05-10T08:00:12;3.93;;;1.40;;
17059;SDS011;8646;49.716;9.266;2023-05-10T08:03:18;3.20;;;1.37;;
17059;SDS011;8646;49.716;9.266;2023-05-10T08:06:22;2.20;;;1.33;;
17059;SDS011;8646;49.716;9.266;2023-05-10T08:09:25;5.70;;;1.30;;
17059;SDS011;8646;49.716;9.266;2023-05-10T08:12:29;3.30;;;1.37;;
17059;SDS011;8646;49.716;9.266;2023-05-10T08:15:32;6.20;;;1.37;;
17059;SDS011;8646;49.716;9.266;2023-05-10T08:18:35;1.90;;;1.60;;
17059;SDS011;8646;49.716;9.266;2023-05-10T08:21:41;2.33;;;1.20;;
17059;SDS011;8646;49.716;9.266;2023-05-10T08:24:44;3.07;;;1.43;;
17059;SDS011;8646;49.716;9.266;2023-05-10T08:27:48;2.40;;;1.30;;
17059;SDS011;8646;49.716;9.266;2023-05-10T08:30:54;4.27;;;1.30;;
17059;SDS011;8646;49.716;9.266;2023-05-10T08:33:57;3.27;;;1.20;;
17059;SDS011;8646;49.716;9.266;2023-05-10T08:36:59;2.50;;;1.43;;
17059;SDS011;8646;49.716;9.266;2023-05-10T08:40:02;3.10;;;1.30;;
17059;SDS011;8646;49.716;9.266;2023-05-10T08:43:09;2.80;;;1.20;;
17059;SDS011;8646;49.716;9.266;2023-05-10T08:46:13;2.37;;;1.10;;
17059;SDS011;8646;49.716;9.266;2023-05-10T08:49:19;2.80;;;1.43;;
17059;SDS011;8646;49.716;9.266;2023-05-10T08:52:22;3.30;;;1.23;;
17059;SDS011;8646;49.716;9.266;2023-05-10T08:55:28;5.60;;;1.23;;
17059;SDS011;8646;49.716;9.266;2023-05-10T08:58:41;3.90;;;1.30;;
17059;SDS011;8646;49.716;9.266;2023-05-10T09:01:44;4.43;;;1.00;;
17059;SDS011;8646;49.716;9.266;2023-05-10T09:04:49;2.70;;;1.07;;
17059;SDS011;8646;49.716;9.266;2023-05-10T09:07:54;3.97;;;1.00;;
17059;SDS011;8646;49.716;9.266;2023-05-10T09:10:57;3.63;;;1.30;;
17059;SDS011;8646;49.716;9.266;2023-05-10T09:14:03;1.77;;;1.10;;
17059;SDS011;8646;49.716;9.266;2023-05-10T09:17:05;1.53;;;1.00;;
17059;SDS011;8646;49.716;9.266;2023-05-10T09:20:10;3.43;;;1.30;;
17059;SDS011;8646;49.716;9.266;2023-05-10T09:23:13;5.67;;;1.10;;
17059;SDS011;8646;49.716;9.266;2023-05-10T09:26:15;1.70;;;0.90;;
17059;SDS011;8646;49.716;9.266;2023-05-10T09:29:27;1.40;;;0.93;;
17059;SDS011;8646;49.716;9.266;2023-05-10T09:32:42;1.43;;;0.80;;
17059;SDS011;8646;49.716;9.266;2023-05-10T09:35:45;2.67;;;1.03;;
17059;SDS011;8646;49.716;9.266;2023-05-10T09:38:49;3.10;;;1.10;;
17059;SDS011;8646;49.716;9.266;2023-05-10T09:41:53;2.00;;;1.10;;
17059;SDS011;8646;49.716;9.266;2023-05-10T09:45:01;2.73;;;0.80;;
17059;SDS011;8646;49.716;9.266;2023-05-10T09:48:05;3.77;;;0.93;;
17059;SDS011;8646;49.716;9.266;2023-05-10T09:51:08;2.37;;;1.00;;
17059;SDS011;8646;49.716;9.266;2023-05-10T09:54:12;1.60;;;0.90;;
17059;SDS011;8646;49.716;9.266;2023-05-10T09:57:18;3.77;;;0.80;;
17059;SDS011;8646;49.716;9.266;2023-05-10T10:00:28;1.50;;;1.00;;
17059;SDS011;8646;49.716;9.266;2023-05-10T10:03:43;4.30;;;0.90;;
17059;SDS011;8646;49.716;9.266;2023-05-10T10:06:47;4.40;;;1.20;;
17059;SDS011;8646;49.716;9.266;2023-05-10T10:10:01;3.10;;;1.23;;
17059;SDS011;8646;49.716;9.266;2023-05-10T10:13:06;1.27;;;0.93;;
17059;SDS011;8646;49.716;9.266;2023-05-10T10:16:11;1.83;;;0.93;;
17059;SDS011;8646;49.716;9.266;2023-05-10T10:19:14;1.30;;;0.93;;
17059;SDS011;8646;49.716;9.266;2023-05-10T10:22:17;3.10;;;0.80;;
17059;SDS011;8646;49.716;9.266;2023-05-10T10:25:20;2.17;;;0.80;;
17059;SDS011;8646;49.716;9.266;2023-05-10T10:28:24;3.90;;;1.03;;
17059;SDS011;8646;49.716;9.266;2023-05-10T10:31:36;2.70;;;0.80;;
17059;SDS011;8646;49.716;9.266;2023-05-10T10:34:43;1.07;;;0.60;;
17059;SDS011;8646;49.716;9.266;2023-05-10T10:37:46;1.30;;;0.70;;
17059;SDS011;8646;49.716;9.266;2023-05-10T10:41:01;2.73;;;0.87;;
17059;SDS011;8646;49.716;9.266;2023-05-10T10:47:40;2.07;;;0.67;;
17059;SDS011;8646;49.716;9.266;2023-05-10T10:50:44;2.77;;;0.70;;
17059;SDS011;8646;49.716;9.266;2023-05-10T10:53:48;1.33;;;0.80;;
17059;SDS011;8646;49.716;9.266;2023-05-10T11:00:25;1.37;;;0.70;;
17059;SDS011;8646;49.716;9.266;2023-05-10T11:03:31;2.40;;;0.60;;
17059;SDS011;8646;49.716;9.266;2023-05-10T11:06:34;0.77;;;0.67;;
17059;SDS011;8646;49.716;9.266;2023-05-10T11:09:39;1.97;;;0.70;;
17059;SDS011;8646;49.716;9.266;2023-05-10T11:12:50;3.47;;;0.80;;
17059;SDS011;8646;49.716;9.266;2023-05-10T11:15:54;2.33;;;0.77;;
17059;SDS011;8646;49.716;9.266;2023-05-10T11:19:00;1.83;;;0.80;;
17059;SDS011;8646;49.716;9.266;2023-05-10T11:22:12;1.80;;;0.80;;
17059;SDS011;8646;49.716;9.266;2023-05-10T11:25:15;1.40;;;1.00;;
17059;SDS011;8646;49.716;9.266;2023-05-10T11:28:18;1.67;;;0.90;;
17059;SDS011;8646;49.716;9.266;2023-05-10T11:31:21;1.83;;;1.00;;
17059;SDS011;8646;49.716;9.266;2023-05-10T11:34:29;2.13;;;1.20;;
17059;SDS011;8646;49.716;9.266;2023-05-10T11:37:35;2.53;;;1.10;;
17059;SDS011;8646;49.716;9.266;2023-05-10T11:40:39;2.23;;;1.10;;
17059;SDS011;8646;49.716;9.266;2023-05-10T11:43:42;1.90;;;1.00;;
17059;SDS011;8646;49.716;9.266;2023-05-10T11:46:48;2.10;;;1.20;;
17059;SDS011;8646;49.716;9.266;2023-05-10T11:49:53;2.90;;;1.00;;
17059;SDS011;8646;49.716;9.266;2023-05-10T11:52:56;1.87;;;1.00;;
17059;SDS011;8646;49.716;9.266;2023-05-10T11:56:03;5.47;;;1.10;;
17059;SDS011;8646;49.716;9.266;2023-05-10T11:59:06;3.20;;;1.00;;
17059;SDS011;8646;49.716;9.266;2023-05-10T12:02:09;2.53;;;1.00;;
17059;SDS011;8646;49.716;9.266;2023-05-10T12:05:14;2.20;;;1.00;;
17059;SDS011;8646;49.716;9.266;2023-05-10T12:08:19;3.07;;;0.90;;
17059;SDS011;8646;49.716;9.266;2023-05-10T12:11:24;1.33;;;0.90;;
17059;SDS011;8646;49.716;9.266;2023-05-10T12:14:28;0.80;;;0.73;;
17059;SDS011;8646;49.716;9.266;2023-05-10T12:17:34;2.67;;;0.90;;
17059;SDS011;8646;49.716;9.266;2023-05-10T12:20:44;1.00;;;0.90;;
17059;SDS011;8646;49.716;9.266;2023-05-10T12:23:48;3.60;;;1.00;;
17059;SDS011;8646;49.716;9.266;2023-05-10T12:26:52;1.53;;;0.90;;
17059;SDS011;8646;49.716;9.266;2023-05-10T12:29:54;1.13;;;0.80;;
17059;SDS011;8646;49.716;9.266;2023-05-10T12:32:59;3.60;;;0.90;;
17059;SDS011;8646;49.716;9.266;2023-05-10T12:36:06;3.43;;;1.10;;
17059;SDS011;8646;49.716;9.266;2023-05-10T12:39:09;1.27;;;0.90;;
17059;SDS011;8646;49.716;9.266;2023-05-10T12:42:12;1.77;;;0.97;;
17059;SDS011;8646;49.716;9.266;2023-05-10T12:45:16;2.47;;;0.90;;
17059;SDS011;8646;49.716;9.266;2023-05-10T12:48:20;1.60;;;1.00;;
17059;SDS011;8646;49.716;9.266;2023-05-10T12:51:24;2.63;;;1.00;;
17059;SDS011;8646;49.716;9.266;2023-05-10T12:54:26;2.97;;;1.20;;
17059;SDS011;8646;49.716;9.266;2023-05-10T12:57:29;2.80;;;1.10;;
17059;SDS011;8646;49.716;9.266;2023-05-10T13:00:32;2.80;;;1.30;;
17059;SDS011;8646;49.716;9.266;2023-05-10T13:03:35;2.20;;;1.00;;
17059;SDS011;8646;49.716;9.266;2023-05-10T13:06:42;1.93;;;1.00;;
17059;SDS011;8646;49.716;9.266;2023-05-10T13:09:45;1.87;;;1.10;;
17059;SDS011;8646;49.716;9.266;2023-05-10T13:12:48;1.67;;;1.00;;
17059;SDS011;8646;49.716;9.266;2023-05-10T13:15:51;1.60;;;0.80;;
17059;SDS011;8646;49.716;9.266;2023-05-10T13:18:54;2.03;;;1.10;;
17059;SDS011;8646;49.716;9.266;2023-05-10T13:21:58;2.27;;;0.70;;
17059;SDS011;8646;49.716;9.266;2023-05-10T13:25:00;4.57;;;1.00;;
17059;SDS011;8646;49.716;9.266;2023-05-10T13:28:03;1.77;;;1.00;;
17059;SDS011;8646;49.716;9.266;2023-05-10T13:31:06;2.77;;;0.90;;
17059;SDS011;8646;49.716;9.266;2023-05-10T13:34:11;2.97;;;0.90;;
17059;SDS011;8646;49.716;9.266;2023-05-10T13:37:18;0.83;;;0.80;;
17059;SDS011;8646;49.716;9.266;2023-05-10T13:40:21;2.00;;;0.90;;
17059;SDS011;8646;49.716;9.266;2023-05-10T13:43:23;4.10;;;1.07;;
17059;SDS011;8646;49.716;9.266;2023-05-10T13:46:26;3.83;;;1.10;;
17059;SDS011;8646;49.716;9.266;2023-05-10T13:49:31;1.03;;;0.70;;
17059;SDS011;8646;49.716;9.266;2023-05-10T13:52:36;1.63;;;0.80;;
17059;SDS011;8646;49.716;9.266;2023-05-10T13:55:39;2.63;;;0.90;;
17059;SDS011;8646;49.716;9.266;2023-05-10T13:58:41;2.77;;;0.90;;
17059;SDS011;8646;49.716;9.266;2023-05-10T14:01:46;2.77;;;1.00;;
17059;SDS011;8646;49.716;9.266;2023-05-10T14:04:50;4.17;;;1.17;;
17059;SDS011;8646;49.716;9.266;2023-05-10T14:07:54;3.43;;;1.00;;
17059;SDS011;8646;49.716;9.266;2023-05-10T14:10:57;5.60;;;1.00;;
17059;SDS011;8646;49.716;9.266;2023-05-10T14:14:00;4.87;;;1.20;;
17059;SDS011;8646;49.716;9.266;2023-05-10T14:17:02;3.40;;;0.97;;
17059;SDS011;8646;49.716;9.266;2023-05-10T14:20:06;2.43;;;1.00;;
17059;SDS011;8646;49.716;9.266;2023-05-10T14:23:11;3.07;;;1.17;;
17059;SDS011;8646;49.716;9.266;2023-05-10T14:26:14;2.63;;;1.13;;
17059;SDS011;8646;49.716;9.266;2023-05-10T14:29:17;3.63;;;1.10;;
17059;SDS011;8646;49.716;9.266;2023-05-10T14:32:20;3.07;;;1.20;;
17059;SDS011;8646;49.716;9.266;2023-05-10T14:35:22;3.73;;;1.03;;
17059;SDS011;8646;49.716;9.266;2023-05-10T14:38:27;7.23;;;1.20;;
17059;SDS011;8646;49.716;9.266;2023-05-10T14:41:30;6.97;;;1.10;;
17059;SDS011;8646;49.716;9.266;2023-05-10T14:44:33;6.97;;;1.40;;
17059;SDS011;8646;49.716;9.266;2023-05-10T14:47:35;5.07;;;2.00;;
17059;SDS011;8646;49.716;9.266;2023-05-10T14:50:38;6.73;;;1.50;;
17059;SDS011;8646;49.716;9.266;2023-05-10T14:53:42;13.13;;;2.13;;
17059;SDS011;8646;49.716;9.266;2023-05-10T14:56:45;4.77;;;1.20;;
17059;SDS011;8646;49.716;9.266;2023-05-10T14:59:49;6.33;;;1.70;;
17059;SDS011;8646;49.716;9.266;2023-05-10T15:02:53;3.63;;;1.10;;
17059;SDS011;8646;49.716;9.266;2023-05-10T15:05:56;5.60;;;1.00;;
17059;SDS011;8646;49.716;9.266;2023-05-10T15:09:00;2.97;;;1.00;;
17059;SDS011;8646;49.716;9.266;2023-05-10T15:12:04;2.27;;;0.80;;
17059;SDS011;8646;49.716;9.266;2023-05-10T15:15:07;3.67;;;1.00;;
17059;SDS011;8646;49.716;9.266;2023-05-10T15:18:10;5.33;;;1.07;;
17059;SDS011;8646;49.716;9.266;2023-05-10T15:21:13;4.23;;;1.10;;
17059;SDS011;8646;49.716;9.266;2023-05-10T15:24:17;3.43;;;0.80;;
17059;SDS011;8646;49.716;9.266;2023-05-10T15:27:20;2.27;;;0.80;;
17059;SDS011;8646;49.716;9.266;2023-05-10T15:30:23;3.53;;;0.83;;
17059;SDS011;8646;49.716;9.266;2023-05-10T15:33:25;7.20;;;1.00;;
17059;SDS011;8646;49.716;9.266;2023-05-10T15:36:28;3.53;;;1.00;;
17059;SDS011;8646;49.716;9.266;2023-05-10T15:39:34;2.27;;;1.00;;
17059;SDS011;8646;49.716;9.266;2023-05-10T15:42:36;3.47;;;0.93;;
17059;SDS011;8646;49.716;9.266;2023-05-10T15:45:39;3.00;;;0.90;;
17059;SDS011;8646;49.716;9.266;2023-05-10T15:48:42;3.27;;;0.90;;
17059;SDS011;8646;49.716;9.266;2023-05-10T15:51:45;4.67;;;1.23;;
17059;SDS011;8646;49.716;9.266;2023-05-10T15:54:49;2.80;;;1.10;;
17059;SDS011;8646;49.716;9.266;2023-05-10T15:57:53;2.87;;;1.03;;
17059;SDS011;8646;49.716;9.266;2023-05-10T16:00:59;4.30;;;1.00;;
17059;SDS011;8646;49.716;9.266;2023-05-10T16:04:03;2.40;;;0.93;;
17059;SDS011;8646;49.716;9.266;2023-05-10T16:07:05;4.60;;;1.10;;
17059;SDS011;8646;49.716;9.266;2023-05-10T16:10:10;3.50;;;0.90;;
17059;SDS011;8646;49.716;9.266;2023-05-10T16:13:13;7.13;;;1.13;;
17059;SDS011;8646;49.716;9.266;2023-05-10T16:16:17;4.40;;;1.10;;
17059;SDS011;8646;49.716;9.266;2023-05-10T16:19:20;3.30;;;0.60;;
17059;SDS011;8646;49.716;9.266;2023-05-10T16:22:24;4.50;;;1.00;;
17059;SDS011;8646;49.716;9.266;2023-05-10T16:25:28;4.03;;;1.10;;
17059;SDS011;8646;49.716;9.266;2023-05-10T16:28:31;2.47;;;1.00;;
17059;SDS011;8646;49.716;9.266;2023-05-10T16:31:34;3.27;;;0.90;;
17059;SDS011;8646;49.716;9.266;2023-05-10T16:34:37;2.70;;;0.87;;
17059;SDS011;8646;49.716;9.266;2023-05-10T16:37:39;4.57;;;0.93;;
17059;SDS011;8646;49.716;9.266;2023-05-10T16:40:43;4.07;;;0.87;;
17059;SDS011;8646;49.716;9.266;2023-05-10T16:43:46;3.57;;;0.90;;
17059;SDS011;8646;49.716;9.266;2023-05-10T16:46:49;6.93;;;1.10;;
17059;SDS011;8646;49.716;9.266;2023-05-10T16:49:53;5.67;;;1.00;;
17059;SDS011;8646;49.716;9.266;2023-05-10T16:52:56;3.00;;;1.00;;
17059;SDS011;8646;49.716;9.266;2023-05-10T16:56:00;4.33;;;0.87;;
17059;SDS011;8646;49.716;9.266;2023-05-10T16:59:04;2.33;;;0.90;;
17059;SDS011;8646;49.716;9.266;2023-05-10T17:02:06;2.60;;;0.80;;
17059;SDS011;8646;49.716;9.266;2023-05-10T17:05:09;4.13;;;0.83;;
17059;SDS011;8646;49.716;9.266;2023-05-10T17:08:15;3.10;;;0.80;;
17059;SDS011;8646;49.716;9.266;2023-05-10T17:11:19;2.53;;;1.10;;
17059;SDS011;8646;49.716;9.266;2023-05-10T17:14:22;5.40;;;0.87;;
17059;SDS011;8646;49.716;9.266;2023-05-10T17:17:25;3.47;;;1.10;;
17059;SDS011;8646;49.716;9.266;2023-05-10T17:20:27;1.50;;;0.80;;
17059;SDS011;8646;49.716;9.266;2023-05-10T17:23:30;1.93;;;0.73;;
17059;SDS011;8646;49.716;9.266;2023-05-10T17:26:34;4.70;;;0.73;;
17059;SDS011;8646;49.716;9.266;2023-05-10T17:29:37;2.60;;;0.90;;
17059;SDS011;8646;49.716;9.266;2023-05-10T17:32:40;2.97;;;1.10;;
17059;SDS011;8646;49.716;9.266;2023-05-10T17:35:43;2.87;;;0.90;;
17059;SDS011;8646;49.716;9.266;2023-05-10T17:38:46;2.17;;;1.00;;
17059;SDS011;8646;49.716;9.266;2023-05-10T17:41:51;5.57;;;1.40;;
17059;SDS011;8646;49.716;9.266;2023-05-10T17:44:53;3.23;;;1.00;;
17059;SDS011;8646;49.716;9.266;2023-05-10T17:47:56;3.10;;;0.97;;
17059;SDS011;8646;49.716;9.266;2023-05-10T17:50:59;6.27;;;0.90;;
17059;SDS011;8646;49.716;9.266;2023-05-10T17:54:02;3.67;;;1.00;;
17059;SDS011;8646;49.716;9.266;2023-05-10T17:57:06;4.87;;;1.00;;
17059;SDS011;8646;49.716;9.266;2023-05-10T18:00:09;4.90;;;1.10;;
17059;SDS011;8646;49.716;9.266;2023-05-10T18:03:13;3.73;;;0.90;;
17059;SDS011;8646;49.716;9.266;2023-05-10T18:06:16;7.00;;;2.80;;
17059;SDS011;8646;49.716;9.266;2023-05-10T18:09:18;5.53;;;1.67;;
17059;SDS011;8646;49.716;9.266;2023-05-10T18:12:23;3.07;;;0.90;;
17059;SDS011;8646;49.716;9.266;2023-05-10T18:15:26;8.57;;;3.47;;
17059;SDS011;8646;49.716;9.266;2023-05-10T18:18:31;7.20;;;2.07;;
17059;SDS011;8646;49.716;9.266;2023-05-10T18:21:35;6.63;;;1.90;;
17059;SDS011;8646;49.716;9.266;2023-05-10T18:24:38;9.70;;;2.80;;
17059;SDS011;8646;49.716;9.266;2023-05-10T18:27:42;5.43;;;1.40;;
17059;SDS011;8646;49.716;9.266;2023-05-10T18:30:44;4.43;;;1.20;;
17059;SDS011;8646;49.716;9.266;2023-05-10T18:33:47;2.40;;;1.50;;
17059;SDS011;8646;49.716;9.266;2023-05-10T18:36:50;4.73;;;1.30;;
17059;SDS011;8646;49.716;9.266;2023-05-10T18:39:53;3.60;;;1.60;;
17059;SDS011;8646;49.716;9.266;2023-05-10T18:42:57;4.47;;;1.50;;
17059;SDS011;8646;49.716;9.266;2023-05-10T18:46:00;2.70;;;0.90;;
17059;SDS011;8646;49.716;9.266;2023-05-10T18:49:03;4.60;;;1.10;;
17059;SDS011;8646;49.716;9.266;2023-05-10T18:52:06;7.30;;;1.37;;
17059;SDS011;8646;49.716;9.266;2023-05-10T18:55:09;6.13;;;1.23;;